No particular awareness of the weather is required.    There are no Weather-warnings


Meteo18 Weather Cam more information Meteo18 Weather Cam


Thunder radar more information blitzortung!


Rain radar more information rain snow radar


Visit our other weather sites:

Template documentation
and downloads

And another site



Weather Underground History page Text

Daily Summary for August 25, 2017 Units:  Both    English   Metric
« Previous Day
Next Day »
Daily Weekly Monthly Yearly Custom
  High: Low: Average:
Temperature: 84.2 °F /  29.0 °C 62.8 °F /  17.1 °C 73 °F /  22.8 °C
Dew Point: 69.6 °F /  20.9 °C 60.1 °F /  15.6 °C 64.8 °F /  18.2 °C
Humidity: 93 % 58 % 77 %
Wind Speed: 12 mph /  19.3 km/h - 2.5 mph /  4 km/h
Wind Gust: 19 mph /  30.6 km/h - -
Wind:- - SSW
Pressure: 30 in /  1017.2 hPa 30 in /  1015.5 hPa -
Precipitation: 0.05 in /  1.3 mm    
Historical Graphs
 
 
Tabular Data for August 25, 2017
Time Temperature Dew Point Pressure Wind Wind Speed Wind Gust Humidity Rainfall Rate (Hourly)
00:02 71.2 °F /  21.8 °C 63 °F /  17.2 °C 30 in /  1017.2 hPa NE 6 mph /  9.7 km/h 10 mph /  16.1 km/h 75 % 0 in /  0.0 mm
00:07 71.1 °F /  21.7 °C 62.8 °F /  17.1 °C 30 in /  1017.2 hPa NE 4 mph /  6.4 km/h 9 mph /  14.5 km/h 75 % 0 in /  0.0 mm
00:12 71.1 °F /  21.7 °C 63.1 °F /  17.3 °C 30 in /  1017.2 hPa NNE 6 mph /  9.7 km/h 9 mph /  14.5 km/h 76 % 0 in /  0.0 mm
00:17 70.9 °F /  21.6 °C 63 °F /  17.2 °C 30 in /  1017.2 hPa NNE 8 mph /  12.9 km/h 9 mph /  14.5 km/h 76 % 0 in /  0.0 mm
00:22 70.7 °F /  21.5 °C 62.8 °F /  17.1 °C 30 in /  1017.2 hPa NE 3 mph /  4.8 km/h 9 mph /  14.5 km/h 76 % 0 in /  0.0 mm
00:32 70.3 °F /  21.3 °C 62.4 °F /  16.9 °C 30 in /  1017.2 hPa NE 4 mph /  6.4 km/h 9 mph /  14.5 km/h 76 % 0 in /  0.0 mm
00:37 70.3 °F /  21.3 °C 62.8 °F /  17.1 °C 30 in /  1017.2 hPa NNE 5 mph /  8.0 km/h 9 mph /  14.5 km/h 77 % 0 in /  0.0 mm
00:42 70.3 °F /  21.3 °C 62.8 °F /  17.1 °C 30 in /  1016.8 hPa NE 5 mph /  8.0 km/h 7 mph /  11.3 km/h 77 % 0 in /  0.0 mm
00:47 70.3 °F /  21.3 °C 62.8 °F /  17.1 °C 30 in /  1017.2 hPa NE 5 mph /  8.0 km/h 7 mph /  11.3 km/h 77 % 0 in /  0.0 mm
00:52 70.2 °F /  21.2 °C 62.6 °F /  17.0 °C 30 in /  1016.8 hPa NE 4 mph /  6.4 km/h 8 mph /  12.9 km/h 77 % 0 in /  0.0 mm
00:57 70 °F /  21.1 °C 62.4 °F /  16.9 °C 30 in /  1016.8 hPa NE 5 mph /  8.0 km/h 8 mph /  12.9 km/h 77 % 0 in /  0.0 mm
01:02 69.8 °F /  21.0 °C 62.2 °F /  16.8 °C 30 in /  1016.8 hPa NE 1 mph /  1.6 km/h 8 mph /  12.9 km/h 77 % 0 in /  0.0 mm
01:07 69.6 °F /  20.9 °C 62.4 °F /  16.9 °C 30 in /  1016.8 hPa East 1 mph /  1.6 km/h 6 mph /  9.7 km/h 78 % 0 in /  0.0 mm
01:12 69.3 °F /  20.7 °C 62.1 °F /  16.7 °C 30 in /  1016.8 hPa NNW 1 mph /  1.6 km/h 6 mph /  9.7 km/h 78 % 0 in /  0.0 mm
01:22 69.1 °F /  20.6 °C 62.2 °F /  16.8 °C 30 in /  1016.8 hPa North 2 mph /  3.2 km/h 4 mph /  6.4 km/h 79 % 0 in /  0.0 mm
01:27 68.7 °F /  20.4 °C 61.9 °F /  16.6 °C 30 in /  1016.8 hPa Calm   4 mph /  6.4 km/h 79 % 0 in /  0.0 mm
01:32 68.5 °F /  20.3 °C 62.1 °F /  16.7 °C 30 in /  1016.8 hPa North 3 mph /  4.8 km/h 4 mph /  6.4 km/h 80 % 0 in /  0.0 mm
01:37 68.4 °F /  20.2 °C 61.9 °F /  16.6 °C 30 in /  1016.8 hPa Calm   3 mph /  4.8 km/h 80 % 0 in /  0.0 mm
01:42 68.2 °F /  20.1 °C 62.1 °F /  16.7 °C 30 in /  1016.8 hPa North 2 mph /  3.2 km/h 3 mph /  4.8 km/h 81 % 0 in /  0.0 mm
01:47 68.2 °F /  20.1 °C 62.1 °F /  16.7 °C 30 in /  1016.8 hPa North 1 mph /  1.6 km/h 3 mph /  4.8 km/h 81 % 0 in /  0.0 mm
01:52 68.2 °F /  20.1 °C 61.7 °F /  16.5 °C 30 in /  1016.8 hPa North 2 mph /  3.2 km/h 3 mph /  4.8 km/h 80 % 0 in /  0.0 mm
02:02 68.2 °F /  20.1 °C 61.7 °F /  16.5 °C 30 in /  1016.8 hPa Calm   5 mph /  8.0 km/h 80 % 0 in /  0.0 mm
02:12 68 °F /  20.0 °C 61.9 °F /  16.6 °C 30 in /  1016.5 hPa NE 1 mph /  1.6 km/h 5 mph /  8.0 km/h 81 % 0 in /  0.0 mm
02:22 67.6 °F /  19.8 °C 61.5 °F /  16.4 °C 30 in /  1016.5 hPa NNE 1 mph /  1.6 km/h 3 mph /  4.8 km/h 81 % 0 in /  0.0 mm
02:27 67.5 °F /  19.7 °C 61.3 °F /  16.3 °C 30 in /  1016.5 hPa Calm   3 mph /  4.8 km/h 81 % 0 in /  0.0 mm
02:32 67.3 °F /  19.6 °C 61.5 °F /  16.4 °C 30 in /  1016.5 hPa Calm   3 mph /  4.8 km/h 82 % 0 in /  0.0 mm
02:37 67.3 °F /  19.6 °C 61.5 °F /  16.4 °C 30 in /  1016.5 hPa NNW 2 mph /  3.2 km/h 2 mph /  3.2 km/h 82 % 0 in /  0.0 mm
02:42 67.3 °F /  19.6 °C 61.5 °F /  16.4 °C 30 in /  1016.5 hPa NNE 2 mph /  3.2 km/h 2 mph /  3.2 km/h 82 % 0 in /  0.0 mm
02:47 67.3 °F /  19.6 °C 61.5 °F /  16.4 °C 30 in /  1016.5 hPa NNE 1 mph /  1.6 km/h 3 mph /  4.8 km/h 82 % 0 in /  0.0 mm
02:52 67.3 °F /  19.6 °C 61.5 °F /  16.4 °C 30 in /  1016.5 hPa North 1 mph /  1.6 km/h 3 mph /  4.8 km/h 82 % 0 in /  0.0 mm
02:57 67.1 °F /  19.5 °C 61.3 °F /  16.3 °C 30 in /  1016.5 hPa Calm   3 mph /  4.8 km/h 82 % 0 in /  0.0 mm
03:02 66.9 °F /  19.4 °C 61.2 °F /  16.2 °C 30 in /  1016.5 hPa North 1 mph /  1.6 km/h 3 mph /  4.8 km/h 82 % 0 in /  0.0 mm
03:12 66.4 °F /  19.1 °C 61 °F /  16.1 °C 30 in /  1016.5 hPa Calm   2 mph /  3.2 km/h 83 % 0 in /  0.0 mm
03:17 66.4 °F /  19.1 °C 61 °F /  16.1 °C 30 in /  1016.5 hPa Calm   2 mph /  3.2 km/h 83 % 0 in /  0.0 mm
03:22 66.4 °F /  19.1 °C 61 °F /  16.1 °C 30 in /  1016.5 hPa NNE 1 mph /  1.6 km/h 2 mph /  3.2 km/h 83 % 0 in /  0.0 mm
03:27 66.2 °F /  19.0 °C 60.8 °F /  16.0 °C 30 in /  1016.5 hPa NNE 1 mph /  1.6 km/h 2 mph /  3.2 km/h 83 % 0 in /  0.0 mm
03:32 66 °F /  18.9 °C 61 °F /  16.1 °C 30 in /  1016.5 hPa Calm   2 mph /  3.2 km/h 84 % 0 in /  0.0 mm
03:37 66.4 °F /  19.1 °C 61.3 °F /  16.3 °C 30 in /  1016.1 hPa NE 3 mph /  4.8 km/h 3 mph /  4.8 km/h 84 % 0 in /  0.0 mm
03:42 66.7 °F /  19.3 °C 61.3 °F /  16.3 °C 30 in /  1016.1 hPa NNE 1 mph /  1.6 km/h 3 mph /  4.8 km/h 83 % 0 in /  0.0 mm
03:52 66.4 °F /  19.1 °C 61 °F /  16.1 °C 30 in /  1016.1 hPa Calm   4 mph /  6.4 km/h 83 % 0 in /  0.0 mm
03:57 66.4 °F /  19.1 °C 61 °F /  16.1 °C 30 in /  1016.1 hPa NE 2 mph /  3.2 km/h 2 mph /  3.2 km/h 83 % 0 in /  0.0 mm
04:02 66.2 °F /  19.0 °C 60.8 °F /  16.0 °C 30 in /  1016.1 hPa Calm   2 mph /  3.2 km/h 83 % 0 in /  0.0 mm
04:12 66 °F /  18.9 °C 61 °F /  16.1 °C 30 in /  1016.1 hPa Calm   3 mph /  4.8 km/h 84 % 0 in /  0.0 mm
04:17 66 °F /  18.9 °C 61 °F /  16.1 °C 30 in /  1016.1 hPa North 1 mph /  1.6 km/h 1 mph /  1.6 km/h 84 % 0 in /  0.0 mm
04:22 65.7 °F /  18.7 °C 60.6 °F /  15.9 °C 30 in /  1016.1 hPa North 1 mph /  1.6 km/h 1 mph /  1.6 km/h 84 % 0 in /  0.0 mm
04:27 65.7 °F /  18.7 °C 61 °F /  16.1 °C 30 in /  1016.1 hPa NNE 1 mph /  1.6 km/h 1 mph /  1.6 km/h 85 % 0 in /  0.0 mm
04:32 65.7 °F /  18.7 °C 61 °F /  16.1 °C 30 in /  1016.1 hPa Calm   1 mph /  1.6 km/h 85 % 0 in /  0.0 mm
04:37 65.3 °F /  18.5 °C 60.6 °F /  15.9 °C 30 in /  1016.1 hPa North 1 mph /  1.6 km/h 2 mph /  3.2 km/h 85 % 0 in /  0.0 mm
04:42 65.1 °F /  18.4 °C 60.8 °F /  16.0 °C 30 in /  1016.1 hPa NW 1 mph /  1.6 km/h 2 mph /  3.2 km/h 86 % 0 in /  0.0 mm
04:47 65.1 °F /  18.4 °C 60.4 °F /  15.8 °C 30 in /  1016.1 hPa WNW 1 mph /  1.6 km/h 2 mph /  3.2 km/h 85 % 0 in /  0.0 mm
04:52 64.9 °F /  18.3 °C 61 °F /  16.1 °C 30 in /  1016.1 hPa NW 1 mph /  1.6 km/h 2 mph /  3.2 km/h 87 % 0 in /  0.0 mm
05:02 64.9 °F /  18.3 °C 61 °F /  16.1 °C 30 in /  1016.1 hPa NW 1 mph /  1.6 km/h 2 mph /  3.2 km/h 87 % 0 in /  0.0 mm
05:07 64.8 °F /  18.2 °C 60.8 °F /  16.0 °C 30 in /  1016.1 hPa WNW 1 mph /  1.6 km/h 2 mph /  3.2 km/h 87 % 0 in /  0.0 mm
05:12 64.9 °F /  18.3 °C 61 °F /  16.1 °C 30 in /  1015.8 hPa NNW 1 mph /  1.6 km/h 2 mph /  3.2 km/h 87 % 0 in /  0.0 mm
05:17 65.1 °F /  18.4 °C 61.2 °F /  16.2 °C 30 in /  1016.1 hPa Calm   2 mph /  3.2 km/h 87 % 0 in /  0.0 mm
05:22 64.9 °F /  18.3 °C 60.6 °F /  15.9 °C 30 in /  1016.1 hPa Calm   2 mph /  3.2 km/h 86 % 0 in /  0.0 mm
05:32 64.8 °F /  18.2 °C 60.8 °F /  16.0 °C 30 in /  1015.8 hPa Calm   2 mph /  3.2 km/h 87 % 0 in /  0.0 mm
05:42 64.2 °F /  17.9 °C 60.3 °F /  15.7 °C 30 in /  1015.8 hPa Calm   1 mph /  1.6 km/h 87 % 0 in /  0.0 mm
05:52 64.2 °F /  17.9 °C 60.6 °F /  15.9 °C 30 in /  1015.8 hPa Calm   1 mph /  1.6 km/h 88 % 0 in /  0.0 mm
06:02 63.9 °F /  17.7 °C 60.3 °F /  15.7 °C 30 in /  1015.8 hPa Calm   1 mph /  1.6 km/h 88 % 0 in /  0.0 mm
06:07 63.9 °F /  17.7 °C 60.6 °F /  15.9 °C 30 in /  1016.1 hPa Calm   2 mph /  3.2 km/h 89 % 0 in /  0.0 mm
06:12 63.9 °F /  17.7 °C 60.6 °F /  15.9 °C 30 in /  1015.8 hPa Calm   2 mph /  3.2 km/h 89 % 0 in /  0.0 mm
06:17 63.9 °F /  17.7 °C 60.6 °F /  15.9 °C 30 in /  1016.1 hPa Calm   1 mph /  1.6 km/h 89 % 0 in /  0.0 mm
06:22 63.7 °F /  17.6 °C 60.6 °F /  15.9 °C 30 in /  1016.1 hPa Calm   1 mph /  1.6 km/h 90 % 0 in /  0.0 mm
06:32 63.1 °F /  17.3 °C 60.1 °F /  15.6 °C 30 in /  1016.1 hPa Calm   2 mph /  3.2 km/h 90 % 0 in /  0.0 mm
06:37 63.1 °F /  17.3 °C 60.4 °F /  15.8 °C 30 in /  1016.1 hPa Calm   2 mph /  3.2 km/h 91 % 0 in /  0.0 mm
06:42 63 °F /  17.2 °C 60.3 °F /  15.7 °C 30 in /  1016.1 hPa Calm     91 % 0 in /  0.0 mm
06:52 63 °F /  17.2 °C 60.6 °F /  15.9 °C 30 in /  1016.5 hPa Calm   1 mph /  1.6 km/h 92 % 0 in /  0.0 mm
06:57 62.8 °F /  17.1 °C 60.1 °F /  15.6 °C 30 in /  1016.1 hPa Calm   1 mph /  1.6 km/h 91 % 0 in /  0.0 mm
07:02 62.8 °F /  17.1 °C 60.4 °F /  15.8 °C 30 in /  1016.1 hPa Calm     92 % 0 in /  0.0 mm
07:12 62.8 °F /  17.1 °C 60.1 °F /  15.6 °C 30 in /  1016.1 hPa Calm     91 % 0 in /  0.0 mm
07:17 62.8 °F /  17.1 °C 60.1 °F /  15.6 °C 30 in /  1016.1 hPa Calm   1 mph /  1.6 km/h 91 % 0 in /  0.0 mm
07:22 62.8 °F /  17.1 °C 60.4 °F /  15.8 °C 30 in /  1016.1 hPa Calm   1 mph /  1.6 km/h 92 % 0 in /  0.0 mm
07:32 63 °F /  17.2 °C 60.6 °F /  15.9 °C 30 in /  1016.5 hPa Calm   2 mph /  3.2 km/h 92 % 0 in /  0.0 mm
07:42 63.9 °F /  17.7 °C 61.5 °F /  16.4 °C 30 in /  1016.5 hPa Calm     92 % 0 in /  0.0 mm
07:52 64.6 °F /  18.1 °C 61.3 °F /  16.3 °C 30 in /  1016.8 hPa Calm     89 % 0 in /  0.0 mm
08:02 64.9 °F /  18.3 °C 61.9 °F /  16.6 °C 30 in /  1016.5 hPa Calm     90 % 0 in /  0.0 mm
08:07 65.1 °F /  18.4 °C 61.9 °F /  16.6 °C 30 in /  1016.5 hPa Calm   1 mph /  1.6 km/h 89 % 0 in /  0.0 mm
08:12 65.1 °F /  18.4 °C 61.9 °F /  16.6 °C 30 in /  1016.5 hPa Calm   1 mph /  1.6 km/h 89 % 0 in /  0.0 mm
08:17 65.5 °F /  18.6 °C 62.2 °F /  16.8 °C 30 in /  1016.5 hPa Calm   1 mph /  1.6 km/h 89 % 0 in /  0.0 mm
08:22 65.7 °F /  18.7 °C 62.2 °F /  16.8 °C 30 in /  1016.5 hPa Calm   1 mph /  1.6 km/h 89 % 0 in /  0.0 mm
08:32 66 °F /  18.9 °C 62.6 °F /  17.0 °C 30 in /  1016.5 hPa Calm     89 % 0 in /  0.0 mm
08:37 66.4 °F /  19.1 °C 62.8 °F /  17.1 °C 30 in /  1016.5 hPa Calm     88 % 0 in /  0.0 mm
08:47 66.4 °F /  19.1 °C 62.8 °F /  17.1 °C 30 in /  1016.8 hPa Calm   1 mph /  1.6 km/h 88 % 0 in /  0.0 mm
08:52 66.4 °F /  19.1 °C 63 °F /  17.2 °C 30 in /  1016.8 hPa SW 1 mph /  1.6 km/h 1 mph /  1.6 km/h 89 % 0 in /  0.0 mm
09:02 66.6 °F /  19.2 °C 63 °F /  17.2 °C 30 in /  1016.8 hPa SSE 1 mph /  1.6 km/h 2 mph /  3.2 km/h 88 % 0 in /  0.0 mm
09:07 66.7 °F /  19.3 °C 63.3 °F /  17.4 °C 30 in /  1016.5 hPa Calm   4 mph /  6.4 km/h 89 % 0 in /  0.0 mm
09:12 66.6 °F /  19.2 °C 63.5 °F /  17.5 °C 30 in /  1016.1 hPa East 1 mph /  1.6 km/h 4 mph /  6.4 km/h 90 % 0 in /  0.0 mm
09:17 66.4 °F /  19.1 °C 63.3 °F /  17.4 °C 30 in /  1016.1 hPa Calm   3 mph /  4.8 km/h 90 % 0.05 in /  1.3 mm
09:27 66.4 °F /  19.1 °C 63.7 °F /  17.6 °C 30 in /  1016.1 hPa Calm   2 mph /  3.2 km/h 91 % 0.05 in /  1.3 mm
09:32 66.4 °F /  19.1 °C 64 °F /  17.8 °C 30 in /  1016.1 hPa Calm   2 mph /  3.2 km/h 92 % 0.05 in /  1.3 mm
09:37 66.2 °F /  19.0 °C 63.9 °F /  17.7 °C 30 in /  1016.5 hPa West 1 mph /  1.6 km/h 2 mph /  3.2 km/h 92 % 0.05 in /  1.3 mm
09:47 66.4 °F /  19.1 °C 64.2 °F /  17.9 °C 30 in /  1016.1 hPa Calm   2 mph /  3.2 km/h 93 % 0.05 in /  1.3 mm
09:52 66.6 °F /  19.2 °C 64.4 °F /  18.0 °C 30 in /  1016.1 hPa ENE 1 mph /  1.6 km/h 2 mph /  3.2 km/h 93 % 0.05 in /  1.3 mm
10:02 66.7 °F /  19.3 °C 64.4 °F /  18.0 °C 30 in /  1016.5 hPa Calm   1 mph /  1.6 km/h 92 % 0.05 in /  1.3 mm
10:12 68 °F /  20.0 °C 65.7 °F /  18.7 °C 30 in /  1016.5 hPa Calm   2 mph /  3.2 km/h 92 % 0.05 in /  1.3 mm
10:17 69.1 °F /  20.6 °C 66.9 °F /  19.4 °C 30 in /  1016.5 hPa Calm   1 mph /  1.6 km/h 93 % 0 in /  0.0 mm
10:22 69.6 °F /  20.9 °C 66.6 °F /  19.2 °C 30 in /  1016.8 hPa Calm   1 mph /  1.6 km/h 90 % 0 in /  0.0 mm
10:32 69.6 °F /  20.9 °C 66.2 °F /  19.0 °C 30 in /  1017.2 hPa SW 2 mph /  3.2 km/h 2 mph /  3.2 km/h 89 % 0 in /  0.0 mm
10:42 69.6 °F /  20.9 °C 66.6 °F /  19.2 °C 30 in /  1016.8 hPa SSW 1 mph /  1.6 km/h 4 mph /  6.4 km/h 90 % 0 in /  0.0 mm
10:52 71.1 °F /  21.7 °C 67.6 °F /  19.8 °C 30 in /  1016.8 hPa SSW 2 mph /  3.2 km/h 4 mph /  6.4 km/h 89 % 0 in /  0.0 mm
10:57 71.8 °F /  22.1 °C 67.3 °F /  19.6 °C 30 in /  1016.8 hPa SSE 4 mph /  6.4 km/h 4 mph /  6.4 km/h 86 % 0 in /  0.0 mm
11:02 72.3 °F /  22.4 °C 67.6 °F /  19.8 °C 30 in /  1016.8 hPa SSW 4 mph /  6.4 km/h 4 mph /  6.4 km/h 85 % 0 in /  0.0 mm
11:12 73.8 °F /  23.2 °C 68.4 °F /  20.2 °C 30 in /  1016.8 hPa SSW 1 mph /  1.6 km/h 6 mph /  9.7 km/h 83 % 0 in /  0.0 mm
11:17 74.7 °F /  23.7 °C 69.1 °F /  20.6 °C 30 in /  1016.8 hPa Calm   6 mph /  9.7 km/h 83 % 0 in /  0.0 mm
11:22 75.4 °F /  24.1 °C 68.4 °F /  20.2 °C 30 in /  1016.8 hPa Calm   6 mph /  9.7 km/h 79 % 0 in /  0.0 mm
11:32 77 °F /  25.0 °C 68.5 °F /  20.3 °C 30 in /  1016.8 hPa SW 6 mph /  9.7 km/h 6 mph /  9.7 km/h 75 % 0 in /  0.0 mm
11:42 77.5 °F /  25.3 °C 67.5 °F /  19.7 °C 30 in /  1016.8 hPa WSW 6 mph /  9.7 km/h 7 mph /  11.3 km/h 71 % 0 in /  0.0 mm
11:52 77.7 °F /  25.4 °C 67.6 °F /  19.8 °C 30 in /  1016.8 hPa WSW 6 mph /  9.7 km/h 10 mph /  16.1 km/h 71 % 0 in /  0.0 mm
12:02 78.3 °F /  25.7 °C 67.6 °F /  19.8 °C 30 in /  1016.8 hPa WNW 3 mph /  4.8 km/h 12 mph /  19.3 km/h 70 % 0 in /  0.0 mm
12:07 78.3 °F /  25.7 °C 67.6 °F /  19.8 °C 30 in /  1016.8 hPa WSW 6 mph /  9.7 km/h 10 mph /  16.1 km/h 70 % 0 in /  0.0 mm
12:12 78.4 °F /  25.8 °C 68.2 °F /  20.1 °C 30 in /  1016.8 hPa WSW 3 mph /  4.8 km/h 10 mph /  16.1 km/h 71 % 0 in /  0.0 mm
12:17 78.8 °F /  26.0 °C 67.8 °F /  19.9 °C 30 in /  1016.8 hPa SW 6 mph /  9.7 km/h 11 mph /  17.7 km/h 69 % 0 in /  0.0 mm
12:22 78.4 °F /  25.8 °C 68.2 °F /  20.1 °C 30 in /  1016.8 hPa SW 7 mph /  11.3 km/h 11 mph /  17.7 km/h 71 % 0 in /  0.0 mm
12:27 78.8 °F /  26.0 °C 67.8 °F /  19.9 °C 30 in /  1016.8 hPa West 5 mph /  8.0 km/h 11 mph /  17.7 km/h 69 % 0 in /  0.0 mm
12:32 79.3 °F /  26.3 °C 68.7 °F /  20.4 °C 30 in /  1016.5 hPa SW 11 mph /  17.7 km/h 11 mph /  17.7 km/h 70 % 0 in /  0.0 mm
12:37 79.7 °F /  26.5 °C 69.1 °F /  20.6 °C 30 in /  1016.5 hPa NW 5 mph /  8.0 km/h 11 mph /  17.7 km/h 70 % 0 in /  0.0 mm
12:47 79.5 °F /  26.4 °C 68.9 °F /  20.5 °C 30 in /  1016.5 hPa SW 4 mph /  6.4 km/h 11 mph /  17.7 km/h 70 % 0 in /  0.0 mm
12:52 79.9 °F /  26.6 °C 68.7 °F /  20.4 °C 30 in /  1016.5 hPa WSW 4 mph /  6.4 km/h 11 mph /  17.7 km/h 69 % 0 in /  0.0 mm
12:57 80.1 °F /  26.7 °C 69.4 °F /  20.8 °C 30 in /  1016.5 hPa West 3 mph /  4.8 km/h 11 mph /  17.7 km/h 70 % 0 in /  0.0 mm
13:02 80.1 °F /  26.7 °C 68.2 °F /  20.1 °C 30 in /  1016.5 hPa SW 4 mph /  6.4 km/h 11 mph /  17.7 km/h 67 % 0 in /  0.0 mm
13:12 80.4 °F /  26.9 °C 68.9 °F /  20.5 °C 30 in /  1016.5 hPa West 7 mph /  11.3 km/h 11 mph /  17.7 km/h 68 % 0 in /  0.0 mm
13:17 80.4 °F /  26.9 °C 68.5 °F /  20.3 °C 30 in /  1016.5 hPa South 12 mph /  19.3 km/h 15 mph /  24.1 km/h 67 % 0 in /  0.0 mm
13:22 80.8 °F /  27.1 °C 68.7 °F /  20.4 °C 30 in /  1016.5 hPa West 2 mph /  3.2 km/h 15 mph /  24.1 km/h 67 % 0 in /  0.0 mm
13:32 81.1 °F /  27.3 °C 68.7 °F /  20.4 °C 30 in /  1016.1 hPa West 6 mph /  9.7 km/h 14 mph /  22.5 km/h 66 % 0 in /  0.0 mm
13:42 80.8 °F /  27.1 °C 68.4 °F /  20.2 °C 30 in /  1016.5 hPa West 7 mph /  11.3 km/h 11 mph /  17.7 km/h 66 % 0 in /  0.0 mm
13:52 82 °F /  27.8 °C 69.1 °F /  20.6 °C 30 in /  1016.1 hPa West 5 mph /  8.0 km/h 12 mph /  19.3 km/h 65 % 0 in /  0.0 mm
14:02 82.6 °F /  28.1 °C 69.6 °F /  20.9 °C 30 in /  1016.1 hPa SSW 10 mph /  16.1 km/h 13 mph /  20.9 km/h 65 % 0 in /  0.0 mm
14:07 82.9 °F /  28.3 °C 69.4 °F /  20.8 °C 30 in /  1016.1 hPa WSW 9 mph /  14.5 km/h 12 mph /  19.3 km/h 64 % 0 in /  0.0 mm
14:12 82.8 °F /  28.2 °C 68.9 °F /  20.5 °C 30 in /  1016.1 hPa West 9 mph /  14.5 km/h 12 mph /  19.3 km/h 63 % 0 in /  0.0 mm
14:17 82.6 °F /  28.1 °C 69.1 °F /  20.6 °C 30 in /  1016.1 hPa West 4 mph /  6.4 km/h 14 mph /  22.5 km/h 64 % 0 in /  0.0 mm
14:22 82.9 °F /  28.3 °C 68.2 °F /  20.1 °C 30 in /  1016.1 hPa West 4 mph /  6.4 km/h 14 mph /  22.5 km/h 61 % 0 in /  0.0 mm
14:32 82.8 °F /  28.2 °C 68.4 °F /  20.2 °C 30 in /  1016.1 hPa SSW 3 mph /  4.8 km/h 14 mph /  22.5 km/h 62 % 0 in /  0.0 mm
14:37 83.5 °F /  28.6 °C 68.5 °F /  20.3 °C 30 in /  1016.1 hPa WSW 8 mph /  12.9 km/h 12 mph /  19.3 km/h 61 % 0 in /  0.0 mm
14:42 83.5 °F /  28.6 °C 68.2 °F /  20.1 °C 30 in /  1016.1 hPa SW 7 mph /  11.3 km/h 12 mph /  19.3 km/h 60 % 0 in /  0.0 mm
14:52 82.8 °F /  28.2 °C 68 °F /  20.0 °C 30 in /  1016.1 hPa WSW 6 mph /  9.7 km/h 12 mph /  19.3 km/h 61 % 0 in /  0.0 mm
15:02 83.1 °F /  28.4 °C 68.7 °F /  20.4 °C 30 in /  1016.1 hPa WNW 9 mph /  14.5 km/h 12 mph /  19.3 km/h 62 % 0 in /  0.0 mm
15:07 83.1 °F /  28.4 °C 67.3 °F /  19.6 °C 30 in /  1016.1 hPa SW 6 mph /  9.7 km/h 12 mph /  19.3 km/h 59 % 0 in /  0.0 mm
15:12 82.9 °F /  28.3 °C 67.6 °F /  19.8 °C 30 in /  1016.1 hPa WSW 3 mph /  4.8 km/h 12 mph /  19.3 km/h 60 % 0 in /  0.0 mm
15:17 83.5 °F /  28.6 °C 68.5 °F /  20.3 °C 30 in /  1015.8 hPa WSW 8 mph /  12.9 km/h 12 mph /  19.3 km/h 61 % 0 in /  0.0 mm
15:32 83.5 °F /  28.6 °C 67.6 °F /  19.8 °C 30 in /  1015.8 hPa West 6 mph /  9.7 km/h 12 mph /  19.3 km/h 59 % 0 in /  0.0 mm
15:42 84 °F /  28.9 °C 67.6 °F /  19.8 °C 30 in /  1015.8 hPa WNW 6 mph /  9.7 km/h 11 mph /  17.7 km/h 58 % 0 in /  0.0 mm
15:47 83.8 °F /  28.8 °C 68 °F /  20.0 °C 30 in /  1015.8 hPa WSW 8 mph /  12.9 km/h 12 mph /  19.3 km/h 59 % 0 in /  0.0 mm
15:52 83.8 °F /  28.8 °C 68 °F /  20.0 °C 30 in /  1015.8 hPa SW 5 mph /  8.0 km/h 12 mph /  19.3 km/h 59 % 0 in /  0.0 mm
16:02 84.2 °F /  29.0 °C 67.8 °F /  19.9 °C 30 in /  1015.5 hPa WSW 5 mph /  8.0 km/h 13 mph /  20.9 km/h 58 % 0 in /  0.0 mm
16:12 83.3 °F /  28.5 °C 67.5 °F /  19.7 °C 30 in /  1015.5 hPa West 2 mph /  3.2 km/h 14 mph /  22.5 km/h 59 % 0 in /  0.0 mm
16:17 83.7 °F /  28.7 °C 67.8 °F /  19.9 °C 30 in /  1015.5 hPa WNW 4 mph /  6.4 km/h 11 mph /  17.7 km/h 59 % 0 in /  0.0 mm
16:22 84 °F /  28.9 °C 67.6 °F /  19.8 °C 30 in /  1015.5 hPa SW 5 mph /  8.0 km/h 11 mph /  17.7 km/h 58 % 0 in /  0.0 mm
16:32 83.5 °F /  28.6 °C 68.2 °F /  20.1 °C 30 in /  1015.5 hPa WSW 7 mph /  11.3 km/h 12 mph /  19.3 km/h 60 % 0 in /  0.0 mm
16:42 83.1 °F /  28.4 °C 67.8 °F /  19.9 °C 30 in /  1015.5 hPa WSW 8 mph /  12.9 km/h 12 mph /  19.3 km/h 60 % 0 in /  0.0 mm
16:52 83.8 °F /  28.8 °C 68 °F /  20.0 °C 30 in /  1015.5 hPa West 9 mph /  14.5 km/h 13 mph /  20.9 km/h 59 % 0 in /  0.0 mm
17:02 83.7 °F /  28.7 °C 67.8 °F /  19.9 °C 30 in /  1015.5 hPa WSW 9 mph /  14.5 km/h 19 mph /  30.6 km/h 59 % 0 in /  0.0 mm
17:07 83.5 °F /  28.6 °C 68.2 °F /  20.1 °C 30 in /  1015.5 hPa WSW 11 mph /  17.7 km/h 15 mph /  24.1 km/h 60 % 0 in /  0.0 mm
17:12 82.9 °F /  28.3 °C 67.1 °F /  19.5 °C 30 in /  1015.5 hPa WSW 10 mph /  16.1 km/h 15 mph /  24.1 km/h 59 % 0 in /  0.0 mm
17:17 82.9 °F /  28.3 °C 67.1 °F /  19.5 °C 30 in /  1015.5 hPa WSW 6 mph /  9.7 km/h 14 mph /  22.5 km/h 59 % 0 in /  0.0 mm
17:22 83.1 °F /  28.4 °C 67.3 °F /  19.6 °C 30 in /  1015.5 hPa WSW 6 mph /  9.7 km/h 14 mph /  22.5 km/h 59 % 0 in /  0.0 mm
17:27 83.5 °F /  28.6 °C 67.6 °F /  19.8 °C 30 in /  1015.5 hPa WSW 6 mph /  9.7 km/h 12 mph /  19.3 km/h 59 % 0 in /  0.0 mm
17:32 83.3 °F /  28.5 °C 66.9 °F /  19.4 °C 30 in /  1015.5 hPa West 7 mph /  11.3 km/h 12 mph /  19.3 km/h 58 % 0 in /  0.0 mm
17:37 82.9 °F /  28.3 °C 66.6 °F /  19.2 °C 30 in /  1015.5 hPa SW 5 mph /  8.0 km/h 14 mph /  22.5 km/h 58 % 0 in /  0.0 mm
17:42 82.6 °F /  28.1 °C 66.7 °F /  19.3 °C 30 in /  1015.5 hPa WSW 8 mph /  12.9 km/h 14 mph /  22.5 km/h 59 % 0 in /  0.0 mm
17:52 82 °F /  27.8 °C 66.7 °F /  19.3 °C 30 in /  1015.5 hPa WSW 7 mph /  11.3 km/h 14 mph /  22.5 km/h 60 % 0 in /  0.0 mm
17:57 82 °F /  27.8 °C 67.3 °F /  19.6 °C 30 in /  1015.5 hPa West 4 mph /  6.4 km/h 9 mph /  14.5 km/h 61 % 0 in /  0.0 mm
18:02 81.9 °F /  27.7 °C 67.6 °F /  19.8 °C 30 in /  1015.5 hPa SW 3 mph /  4.8 km/h 9 mph /  14.5 km/h 62 % 0 in /  0.0 mm
18:12 81.5 °F /  27.5 °C 67.3 °F /  19.6 °C 30 in /  1015.5 hPa WSW 6 mph /  9.7 km/h 13 mph /  20.9 km/h 62 % 0 in /  0.0 mm
18:17 81.3 °F /  27.4 °C 67.5 °F /  19.7 °C 30 in /  1015.5 hPa West 6 mph /  9.7 km/h 13 mph /  20.9 km/h 63 % 0 in /  0.0 mm
18:22 81.5 °F /  27.5 °C 67.6 °F /  19.8 °C 30 in /  1015.5 hPa SW 6 mph /  9.7 km/h 11 mph /  17.7 km/h 63 % 0 in /  0.0 mm
18:32 81.7 °F /  27.6 °C 67.8 °F /  19.9 °C 30 in /  1015.5 hPa West 7 mph /  11.3 km/h 11 mph /  17.7 km/h 63 % 0 in /  0.0 mm
18:37 82 °F /  27.8 °C 67.6 °F /  19.8 °C 30 in /  1015.5 hPa SW 6 mph /  9.7 km/h 11 mph /  17.7 km/h 62 % 0 in /  0.0 mm
18:42 81.9 °F /  27.7 °C 68 °F /  20.0 °C 30 in /  1015.5 hPa WSW 4 mph /  6.4 km/h 11 mph /  17.7 km/h 63 % 0 in /  0.0 mm
18:47 81.5 °F /  27.5 °C 67.6 °F /  19.8 °C 30 in /  1015.5 hPa WSW 5 mph /  8.0 km/h 11 mph /  17.7 km/h 63 % 0 in /  0.0 mm
18:57 81.1 °F /  27.3 °C 67.3 °F /  19.6 °C 30 in /  1015.5 hPa West 3 mph /  4.8 km/h 12 mph /  19.3 km/h 63 % 0 in /  0.0 mm
19:02 81.1 °F /  27.3 °C 67.3 °F /  19.6 °C 30 in /  1015.5 hPa WSW 6 mph /  9.7 km/h 12 mph /  19.3 km/h 63 % 0 in /  0.0 mm
19:12 81 °F /  27.2 °C 67.6 °F /  19.8 °C 30 in /  1015.5 hPa SSW 2 mph /  3.2 km/h 12 mph /  19.3 km/h 64 % 0 in /  0.0 mm
19:17 80.8 °F /  27.1 °C 67.5 °F /  19.7 °C 30 in /  1015.5 hPa SW 5 mph /  8.0 km/h 10 mph /  16.1 km/h 64 % 0 in /  0.0 mm
19:22 80.6 °F /  27.0 °C 67.8 °F /  19.9 °C 30 in /  1015.5 hPa SW 3 mph /  4.8 km/h 10 mph /  16.1 km/h 65 % 0 in /  0.0 mm
19:32 80.6 °F /  27.0 °C 67.8 °F /  19.9 °C 30 in /  1015.5 hPa SW 2 mph /  3.2 km/h 9 mph /  14.5 km/h 65 % 0 in /  0.0 mm
19:37 80.4 °F /  26.9 °C 67.6 °F /  19.8 °C 30 in /  1015.5 hPa SSW 3 mph /  4.8 km/h 9 mph /  14.5 km/h 65 % 0 in /  0.0 mm
19:42 80.4 °F /  26.9 °C 67.6 °F /  19.8 °C 30 in /  1015.8 hPa WSW 3 mph /  4.8 km/h 9 mph /  14.5 km/h 65 % 0 in /  0.0 mm
19:52 80.2 °F /  26.8 °C 67.5 °F /  19.7 °C 30 in /  1015.8 hPa WSW 1 mph /  1.6 km/h 7 mph /  11.3 km/h 65 % 0 in /  0.0 mm
19:57 80.2 °F /  26.8 °C 67.5 °F /  19.7 °C 30 in /  1015.8 hPa WSW 1 mph /  1.6 km/h 5 mph /  8.0 km/h 65 % 0 in /  0.0 mm
20:02 80.1 °F /  26.7 °C 67.6 °F /  19.8 °C 30 in /  1015.8 hPa WSW 2 mph /  3.2 km/h 5 mph /  8.0 km/h 66 % 0 in /  0.0 mm
20:12 79.3 °F /  26.3 °C 67.5 °F /  19.7 °C 30 in /  1015.8 hPa Calm   4 mph /  6.4 km/h 67 % 0 in /  0.0 mm
20:17 79.2 °F /  26.2 °C 67.6 °F /  19.8 °C 30 in /  1015.8 hPa Calm   2 mph /  3.2 km/h 68 % 0 in /  0.0 mm
20:22 79 °F /  26.1 °C 67.5 °F /  19.7 °C 30 in /  1015.8 hPa Calm   2 mph /  3.2 km/h 68 % 0 in /  0.0 mm
20:32 78.3 °F /  25.7 °C 67.6 °F /  19.8 °C 30 in /  1016.1 hPa Calm   1 mph /  1.6 km/h 70 % 0 in /  0.0 mm
20:37 77.9 °F /  25.5 °C 67.3 °F /  19.6 °C 30 in /  1016.1 hPa Calm   1 mph /  1.6 km/h 70 % 0 in /  0.0 mm
20:42 77.4 °F /  25.2 °C 67.3 °F /  19.6 °C 30 in /  1016.1 hPa Calm   1 mph /  1.6 km/h 71 % 0 in /  0.0 mm
20:47 77 °F /  25.0 °C 67.3 °F /  19.6 °C 30 in /  1016.1 hPa Calm     72 % 0 in /  0.0 mm
20:52 76.5 °F /  24.7 °C 67.1 °F /  19.5 °C 30 in /  1016.1 hPa Calm     73 % 0 in /  0.0 mm
20:57 75.9 °F /  24.4 °C 67.1 °F /  19.5 °C 30 in /  1016.1 hPa Calm     74 % 0 in /  0.0 mm
21:02 75.6 °F /  24.2 °C 67.1 °F /  19.5 °C 30 in /  1016.1 hPa Calm     75 % 0 in /  0.0 mm
21:12 74.7 °F /  23.7 °C 66.9 °F /  19.4 °C 30 in /  1016.1 hPa Calm     77 % 0 in /  0.0 mm
21:17 74.5 °F /  23.6 °C 67.1 °F /  19.5 °C 30 in /  1016.5 hPa Calm     78 % 0 in /  0.0 mm
21:22 74.1 °F /  23.4 °C 66.7 °F /  19.3 °C 30 in /  1016.5 hPa Calm     78 % 0 in /  0.0 mm
21:32 73.9 °F /  23.3 °C 66.6 °F /  19.2 °C 30 in /  1016.5 hPa Calm     78 % 0 in /  0.0 mm
21:42 73.6 °F /  23.1 °C 66.4 °F /  19.1 °C 30 in /  1016.5 hPa Calm     78 % 0 in /  0.0 mm
21:52 73 °F /  22.8 °C 65.8 °F /  18.8 °C 30 in /  1016.5 hPa Calm     78 % 0 in /  0.0 mm
21:57 72.7 °F /  22.6 °C 66.2 °F /  19.0 °C 30 in /  1016.8 hPa Calm     80 % 0 in /  0.0 mm
22:02 72.3 °F /  22.4 °C 65.8 °F /  18.8 °C 30 in /  1016.8 hPa Calm     80 % 0 in /  0.0 mm
22:12 71.4 °F /  21.9 °C 65.7 °F /  18.7 °C 30 in /  1016.8 hPa Calm     82 % 0 in /  0.0 mm
22:17 71.1 °F /  21.7 °C 65.7 °F /  18.7 °C 30 in /  1016.8 hPa Calm     83 % 0 in /  0.0 mm
22:22 70.9 °F /  21.6 °C 65.5 °F /  18.6 °C 30 in /  1016.8 hPa Calm     83 % 0 in /  0.0 mm
22:27 70.9 °F /  21.6 °C 65.8 °F /  18.8 °C 30 in /  1016.8 hPa Calm     84 % 0 in /  0.0 mm
22:32 70.5 °F /  21.4 °C 65.1 °F /  18.4 °C 30 in /  1016.8 hPa Calm     83 % 0 in /  0.0 mm
22:42 71.1 °F /  21.7 °C 65.3 °F /  18.5 °C 30 in /  1016.8 hPa Calm     82 % 0 in /  0.0 mm
22:52 70.5 °F /  21.4 °C 65.1 °F /  18.4 °C 30 in /  1016.8 hPa Calm     83 % 0 in /  0.0 mm
22:57 70.2 °F /  21.2 °C 65.1 °F /  18.4 °C 30 in /  1016.8 hPa Calm     84 % 0 in /  0.0 mm
23:07 70.3 °F /  21.3 °C 64.9 °F /  18.3 °C 30 in /  1017.2 hPa Calm     83 % 0 in /  0.0 mm
23:12 70.2 °F /  21.2 °C 64.8 °F /  18.2 °C 30 in /  1017.2 hPa Calm     83 % 0 in /  0.0 mm
23:17 70 °F /  21.1 °C 64.9 °F /  18.3 °C 30 in /  1017.2 hPa Calm     84 % 0 in /  0.0 mm
23:22 69.4 °F /  20.8 °C 64.4 °F /  18.0 °C 30 in /  1017.2 hPa Calm     84 % 0 in /  0.0 mm
23:27 69.1 °F /  20.6 °C 64.4 °F /  18.0 °C 30 in /  1017.2 hPa Calm     85 % 0 in /  0.0 mm
23:32 68.7 °F /  20.4 °C 64.4 °F /  18.0 °C 30 in /  1017.2 hPa Calm     86 % 0 in /  0.0 mm
23:37 68.7 °F /  20.4 °C 64.8 °F /  18.2 °C 30 in /  1017.2 hPa Calm     87 % 0 in /  0.0 mm
23:42 68.5 °F /  20.3 °C 64.6 °F /  18.1 °C 30 in /  1017.2 hPa Calm     87 % 0 in /  0.0 mm
23:52 68.2 °F /  20.1 °C 64.2 °F /  17.9 °C 30 in /  1017.2 hPa Calm     87 % 0 in /  0.0 mm
Meteo18
Compliments of Weather Underground - 4 mb

Script developed by  Jim McMurry - jmcmurry@mwt.net Adapted for the template by  Wim van der Kuil - Leuven-Template.eu

You find our weather info also at:

European Weather Network

Weather Underground

Equipment we use:

Weather-station
Davis Vue

Weather-program
Meteohub

Weather-server
Raspberry PI 2 B+

Provider
1 and 1

Davis Vue

Meteohub

Raspberry PI 2 B+

1 and 1